Time;durP1;ratioP1;P1;durP2;ratioP2;P2;SDS_P1;SDS_P2;PMS_P1;PMS_P2;Temp;Humidity;BMP_temperature;BMP_pressure;BME280_temperature;BME280_humidity;BME280_pressure;Samples;Min_cycle;Max_cycle;Signal;HPM_P1;HPM_P2
2023/09/17 00:00:05;;;;;;;14.40;12.95;;;;;;;;;;5030076;28;20472;-65
2023/09/17 00:02:31;;;;;;;13.63;12.30;;;;;;;;;;5011552;28;20025;-66
2023/09/17 00:04:57;;;;;;;14.32;12.93;;;;;;;;;;5029683;28;20017;-65
2023/09/17 00:07:23;;;;;;;13.55;12.27;;;;;;;;;;5031411;28;20033;-65
2023/09/17 00:09:49;;;;;;;13.93;12.30;;;;;;;;;;5018244;28;20090;-65
2023/09/17 00:12:16;;;;;;;15.75;14.15;;;;;;;;;;5032090;28;20021;-66
2023/09/17 00:14:42;;;;;;;15.35;13.70;;;;;;;;;;5031395;28;20022;-65
2023/09/17 00:17:08;;;;;;;14.55;13.07;;;;;;;;;;5031559;28;20029;-65
2023/09/17 00:19:34;;;;;;;14.90;13.20;;;;;;;;;;5031593;28;20056;-65
2023/09/17 00:22:01;;;;;;;15.50;14.00;;;;;;;;;;5013565;28;20021;-65
2023/09/17 00:24:26;;;;;;;17.20;13.50;;;;;;;;;;5031703;28;20024;-65
2023/09/17 00:26:53;;;;;;;16.30;13.65;;;;;;;;;;5030830;28;20356;-65
2023/09/17 00:29:19;;;;;;;14.73;13.32;;;;;;;;;;5031958;28;20340;-65
2023/09/17 00:31:45;;;;;;;13.13;11.90;;;;;;;;;;5031587;28;20032;-65
2023/09/17 00:34:11;;;;;;;18.30;14.43;;;;;;;;;;5031543;28;20037;-65
2023/09/17 00:36:37;;;;;;;15.88;14.32;;;;;;;;;;5031414;28;20033;-65
2023/09/17 00:39:04;;;;;;;16.35;14.85;;;;;;;;;;5031583;28;20026;-65
2023/09/17 00:41:30;;;;;;;16.25;13.93;;;;;;;;;;5031403;28;20032;-65
2023/09/17 00:43:56;;;;;;;14.85;12.98;;;;;;;;;;5013472;28;20443;-65
2023/09/17 00:46:22;;;;;;;15.27;13.75;;;;;;;;;;5031346;28;20116;-65
2023/09/17 00:48:48;;;;;;;14.95;13.35;;;;;;;;;;5031379;28;20031;-65
2023/09/17 00:51:14;;;;;;;16.02;13.75;;;;;;;;;;5031630;28;20109;-65
2023/09/17 00:53:40;;;;;;;16.15;13.88;;;;;;;;;;5031454;28;20021;-65
2023/09/17 00:56:07;;;;;;;16.80;14.13;;;;;;;;;;5013414;28;20046;-65
2023/09/17 00:58:33;;;;;;;15.65;14.15;;;;;;;;;;5031299;28;20028;-65
2023/09/17 01:00:59;;;;;;;15.13;13.30;;;;;;;;;;5031224;28;20029;-65
2023/09/17 01:03:28;;;;;;;14.98;13.50;;;;;;;;;;5030734;28;20108;-65
2023/09/17 01:05:54;;;;;;;14.80;13.20;;;;;;;;;;5029891;28;20506;-65
2023/09/17 01:08:22;;;;;;;15.60;14.07;;;;;;;;;;5030096;28;20025;-65
2023/09/17 01:10:49;;;;;;;15.15;13.65;;;;;;;;;;5030596;28;20021;-65
2023/09/17 01:13:15;;;;;;;15.20;13.32;;;;;;;;;;5030375;28;20037;-65
2023/09/17 01:15:41;;;;;;;16.48;14.07;;;;;;;;;;5030413;28;20419;-65
2023/09/17 01:18:09;;;;;;;15.57;14.07;;;;;;;;;;5030946;28;20044;-65
2023/09/17 01:20:54;;;;;;;15.98;14.45;;;;;;;;;;5031335;28;20025;-65
2023/09/17 01:23:26;;;;;;;16.33;13.73;;;;;;;;;;5031019;28;20030;-65
2023/09/17 01:26:01;;;;;;;19.85;15.65;;;;;;;;;;5031974;28;20029;-65
2023/09/17 01:28:28;;;;;;;15.30;13.65;;;;;;;;;;5017130;28;20075;-65
2023/09/17 01:30:54;;;;;;;15.73;13.93;;;;;;;;;;5034776;28;20407;-65
2023/09/17 01:33:20;;;;;;;17.10;14.95;;;;;;;;;;5033879;28;20064;-65
2023/09/17 01:35:54;;;;;;;17.33;15.45;;;;;;;;;;5024116;28;20104;-65
2023/09/17 01:38:22;;;;;;;16.65;15.02;;;;;;;;;;5031844;28;20542;-65
2023/09/17 01:40:48;;;;;;;17.35;15.52;;;;;;;;;;5034678;28;20165;-65
2023/09/17 01:43:20;;;;;;;16.45;14.68;;;;;;;;;;5034316;28;20440;-65
2023/09/17 01:45:46;;;;;;;16.55;14.85;;;;;;;;;;5034287;28;20414;-65
2023/09/17 01:48:13;;;;;;;17.30;15.50;;;;;;;;;;5034435;28;20025;-65
2023/09/17 01:50:39;;;;;;;16.05;14.35;;;;;;;;;;5034395;28;20027;-65
2023/09/17 01:53:05;;;;;;;16.63;14.30;;;;;;;;;;5034349;28;20116;-65
2023/09/17 01:55:31;;;;;;;19.67;15.38;;;;;;;;;;5034119;28;20044;-65
2023/09/17 01:57:57;;;;;;;17.67;15.80;;;;;;;;;;5034014;28;20033;-65
2023/09/17 02:00:24;;;;;;;17.38;15.75;;;;;;;;;;5034111;28;20028;-65
2023/09/17 02:02:52;;;;;;;17.75;15.98;;;;;;;;;;5034165;28;20100;-65
2023/09/17 02:05:20;;;;;;;17.42;15.73;;;;;;;;;;5033930;28;20022;-65
2023/09/17 02:07:46;;;;;;;17.98;16.08;;;;;;;;;;5016112;28;20021;-65
2023/09/17 02:10:13;;;;;;;18.85;16.92;;;;;;;;;;5034003;28;20025;-65
2023/09/17 02:12:39;;;;;;;17.77;15.90;;;;;;;;;;5033905;28;20485;-65
2023/09/17 02:15:05;;;;;;;17.60;14.80;;;;;;;;;;5033718;28;20029;-65
2023/09/17 02:17:31;;;;;;;16.92;15.27;;;;;;;;;;5033871;28;20049;-65
2023/09/17 02:19:57;;;;;;;17.63;15.90;;;;;;;;;;5033589;28;20076;-65
2023/09/17 02:22:23;;;;;;;17.42;15.63;;;;;;;;;;5033837;28;20478;-65
2023/09/17 02:24:49;;;;;;;19.17;15.70;;;;;;;;;;5033852;28;20075;-65
2023/09/17 02:27:16;;;;;;;16.52;14.82;;;;;;;;;;5033614;28;20037;-65
2023/09/17 02:29:42;;;;;;;17.77;15.85;;;;;;;;;;5030888;28;20026;-65
2023/09/17 02:32:09;;;;;;;19.08;16.92;;;;;;;;;;5014662;28;20033;-65
2023/09/17 02:34:37;;;;;;;18.45;16.35;;;;;;;;;;5033577;28;20029;-65
2023/09/17 02:37:03;;;;;;;17.60;15.60;;;;;;;;;;5029482;28;20471;-65
2023/09/17 02:39:29;;;;;;;18.15;16.35;;;;;;;;;;5033455;28;20021;-65
2023/09/17 02:41:55;;;;;;;18.05;16.15;;;;;;;;;;5033125;28;20540;-65
2023/09/17 02:44:21;;;;;;;19.70;15.55;;;;;;;;;;5033068;28;20021;-65
2023/09/17 02:46:47;;;;;;;19.23;17.02;;;;;;;;;;5033162;28;20030;-65
2023/09/17 02:49:13;;;;;;;17.77;15.25;;;;;;;;;;4998953;28;20022;-65
2023/09/17 02:51:39;;;;;;;17.55;15.73;;;;;;;;;;5032874;28;20087;-65
2023/09/17 02:54:05;;;;;;;19.05;17.02;;;;;;;;;;5033071;28;20048;-66
2023/09/17 02:56:31;;;;;;;17.35;15.38;;;;;;;;;;5032774;28;20124;-65
2023/09/17 02:58:58;;;;;;;16.48;14.88;;;;;;;;;;5032914;28;20452;-65
2023/09/17 03:01:24;;;;;;;18.48;16.27;;;;;;;;;;5015074;28;20490;-65
2023/09/17 03:03:53;;;;;;;21.80;16.48;;;;;;;;;;5032763;28;20092;-65
2023/09/17 03:06:19;;;;;;;18.50;16.60;;;;;;;;;;5032520;28;20068;-65
2023/09/17 03:08:45;;;;;;;19.42;17.42;;;;;;;;;;5014655;28;20029;-65
2023/09/17 03:11:13;;;;;;;18.52;16.60;;;;;;;;;;5032747;28;20030;-65
2023/09/17 03:13:44;;;;;;;18.33;16.48;;;;;;;;;;5032655;28;20025;-65
2023/09/17 03:16:12;;;;;;;21.13;18.48;;;;;;;;;;5032519;28;20099;-65
2023/09/17 03:18:38;;;;;;;19.15;16.63;;;;;;;;;;5032327;28;20111;-65
2023/09/17 03:21:07;;;;;;;18.63;16.70;;;;;;;;;;5032473;28;20025;-65
2023/09/17 03:23:34;;;;;;;19.63;16.63;;;;;;;;;;5032621;28;20071;-65
2023/09/17 03:26:01;;;;;;;18.30;16.45;;;;;;;;;;5032402;28;20017;-65
2023/09/17 03:28:27;;;;;;;17.48;15.60;;;;;;;;;;5032270;28;20107;-65
2023/09/17 03:30:54;;;;;;;18.15;16.45;;;;;;;;;;5032431;28;20107;-65
2023/09/17 03:33:20;;;;;;;19.27;17.27;;;;;;;;;;5032292;28;20471;-65
2023/09/17 03:35:46;;;;;;;18.48;16.48;;;;;;;;;;5029687;28;20029;-65
2023/09/17 03:38:12;;;;;;;18.42;16.50;;;;;;;;;;5029005;28;20033;-65
2023/09/17 03:40:39;;;;;;;20.33;16.70;;;;;;;;;;5026934;28;20105;-65
2023/09/17 03:43:06;;;;;;;19.58;17.58;;;;;;;;;;5030426;28;20116;-64
2023/09/17 03:45:32;;;;;;;19.05;16.85;;;;;;;;;;5031466;28;20021;-65
2023/09/17 03:47:58;;;;;;;19.95;17.05;;;;;;;;;;5031648;28;20021;-65
2023/09/17 03:50:24;;;;;;;18.23;16.25;;;;;;;;;;5031673;28;20108;-65
2023/09/17 03:52:53;;;;;;;18.92;16.77;;;;;;;;;;5031890;28;20078;-65
2023/09/17 03:55:20;;;;;;;17.42;15.57;;;;;;;;;;5031999;28;20032;-65
2023/09/17 03:57:46;;;;;;;16.95;15.27;;;;;;;;;;5031674;28;20510;-65
2023/09/17 04:00:13;;;;;;;17.63;15.57;;;;;;;;;;5031814;28;20426;-65
2023/09/17 04:02:39;;;;;;;19.95;16.40;;;;;;;;;;5013988;28;20116;-65
2023/09/17 04:05:11;;;;;;;18.00;15.95;;;;;;;;;;5031801;28;20025;-65
2023/09/17 04:07:37;;;;;;;18.80;16.63;;;;;;;;;;5031808;28;20076;-65
2023/09/17 04:10:05;;;;;;;19.60;16.77;;;;;;;;;;5031809;28;20053;-65
2023/09/17 04:12:35;;;;;;;20.23;17.20;;;;;;;;;;5013874;28;20028;-65
2023/09/17 04:15:02;;;;;;;19.27;16.80;;;;;;;;;;5031570;28;20025;-65
2023/09/17 04:17:28;;;;;;;19.02;17.00;;;;;;;;;;5013809;28;20434;-65
2023/09/17 04:19:55;;;;;;;20.27;17.70;;;;;;;;;;5031936;28;20049;-65
2023/09/17 04:22:21;;;;;;;21.15;18.17;;;;;;;;;;5031856;28;20022;-65
2023/09/17 04:24:48;;;;;;;21.08;18.98;;;;;;;;;;5031445;28;20018;-65
2023/09/17 04:27:15;;;;;;;21.48;19.00;;;;;;;;;;5031839;28;20167;-65
2023/09/17 04:29:41;;;;;;;21.70;18.85;;;;;;;;;;5031465;28;20028;-65
2023/09/17 04:32:07;;;;;;;20.80;18.60;;;;;;;;;;5031635;28;20030;-65
2023/09/17 04:34:33;;;;;;;22.30;19.92;;;;;;;;;;5031458;28;20392;-65
2023/09/17 04:36:59;;;;;;;21.25;18.90;;;;;;;;;;5017461;28;20033;-64
2023/09/17 04:39:26;;;;;;;23.92;20.15;;;;;;;;;;5031463;28;20167;-64
2023/09/17 04:41:52;;;;;;;22.08;19.65;;;;;;;;;;5013535;28;20480;-64
2023/09/17 04:44:18;;;;;;;22.90;19.52;;;;;;;;;;5031419;28;20032;-64
2023/09/17 04:46:44;;;;;;;22.48;19.70;;;;;;;;;;5031504;28;20025;-64
2023/09/17 04:49:10;;;;;;;21.20;18.95;;;;;;;;;;5031393;28;20029;-64
2023/09/17 04:51:36;;;;;;;21.42;19.33;;;;;;;;;;5031423;28;20036;-65
2023/09/17 04:54:03;;;;;;;22.92;20.02;;;;;;;;;;5012433;28;20033;-64
2023/09/17 04:56:30;;;;;;;22.13;19.73;;;;;;;;;;5028957;28;20032;-67
2023/09/17 04:58:57;;;;;;;24.35;21.48;;;;;;;;;;5031050;28;20082;-64
2023/09/17 05:01:23;;;;;;;23.05;20.52;;;;;;;;;;5032722;28;20025;-64
2023/09/17 05:03:49;;;;;;;23.90;20.83;;;;;;;;;;5034916;28;20172;-65
2023/09/17 05:06:15;;;;;;;23.50;21.02;;;;;;;;;;5034959;28;20025;-65
2023/09/17 05:08:41;;;;;;;22.55;20.20;;;;;;;;;;5034946;28;20041;-65
2023/09/17 05:11:08;;;;;;;21.73;19.42;;;;;;;;;;5035027;28;20445;-65
2023/09/17 05:13:33;;;;;;;23.23;20.67;;;;;;;;;;5034750;28;20021;-65
2023/09/17 05:16:00;;;;;;;21.70;19.50;;;;;;;;;;5034723;28;20036;-65
2023/09/17 05:18:25;;;;;;;21.77;19.48;;;;;;;;;;5034622;28;20443;-65
2023/09/17 05:20:54;;;;;;;23.40;19.25;;;;;;;;;;5034878;28;20052;-65
2023/09/17 05:23:22;;;;;;;20.25;17.85;;;;;;;;;;5034750;28;20116;-64
2023/09/17 05:25:48;;;;;;;22.23;19.50;;;;;;;;;;5034592;28;20032;-64
2023/09/17 05:28:15;;;;;;;22.23;19.55;;;;;;;;;;5034605;28;20022;-64
2023/09/17 05:30:41;;;;;;;20.42;18.40;;;;;;;;;;5034432;28;20391;-64
2023/09/17 05:33:07;;;;;;;22.42;20.15;;;;;;;;;;5034908;28;20426;-64
2023/09/17 05:35:34;;;;;;;21.45;19.25;;;;;;;;;;5034370;28;20029;-65
2023/09/17 05:38:00;;;;;;;20.40;18.33;;;;;;;;;;5034726;28;20398;-64
2023/09/17 05:40:27;;;;;;;21.08;18.98;;;;;;;;;;5016564;28;20482;-64
2023/09/17 05:42:53;;;;;;;20.15;18.05;;;;;;;;;;5034483;28;20044;-64
2023/09/17 05:45:19;;;;;;;20.88;18.00;;;;;;;;;;5034179;28;20021;-64
2023/09/17 05:47:45;;;;;;;21.13;18.95;;;;;;;;;;5034030;28;20048;-64
2023/09/17 05:50:11;;;;;;;21.15;18.42;;;;;;;;;;5034196;28;20033;-64
2023/09/17 05:52:37;;;;;;;20.27;18.15;;;;;;;;;;5034026;28;20025;-64
2023/09/17 05:55:04;;;;;;;20.38;18.27;;;;;;;;;;5034023;28;20497;-64
2023/09/17 05:57:30;;;;;;;20.95;18.85;;;;;;;;;;5034105;28;20041;-64
2023/09/17 05:59:56;;;;;;;21.10;18.25;;;;;;;;;;5033957;28;20025;-64
2023/09/17 06:02:23;;;;;;;21.92;19.20;;;;;;;;;;5034130;28;20105;-64
2023/09/17 06:04:52;;;;;;;21.02;18.90;;;;;;;;;;5034090;28;20113;-64
2023/09/17 06:07:19;;;;;;;20.75;18.15;;;;;;;;;;5033902;28;20033;-65
2023/09/17 06:09:45;;;;;;;21.15;18.75;;;;;;;;;;5033796;28;20022;-64
2023/09/17 06:12:12;;;;;;;20.88;18.65;;;;;;;;;;5033298;28;20036;-65
2023/09/17 06:14:38;;;;;;;20.08;17.88;;;;;;;;;;5013703;28;20058;-65
2023/09/17 06:17:04;;;;;;;18.42;16.55;;;;;;;;;;5021855;28;20037;-65
2023/09/17 06:19:32;;;;;;;20.88;18.48;;;;;;;;;;5033586;28;20128;-64
2023/09/17 06:21:59;;;;;;;21.60;18.67;;;;;;;;;;5013949;28;20029;-64
2023/09/17 06:24:25;;;;;;;18.98;16.95;;;;;;;;;;5033468;28;20017;-64
2023/09/17 06:26:51;;;;;;;20.40;18.20;;;;;;;;;;5033481;28;20033;-65
2023/09/17 06:29:17;;;;;;;20.70;18.48;;;;;;;;;;5033869;28;20022;-64
2023/09/17 06:31:44;;;;;;;19.52;17.52;;;;;;;;;;5033424;28;20121;-64
2023/09/17 06:34:10;;;;;;;18.52;16.63;;;;;;;;;;5033664;28;20060;-64
2023/09/17 06:36:37;;;;;;;20.65;18.50;;;;;;;;;;5033264;28;20460;-64
2023/09/17 06:39:03;;;;;;;19.40;17.20;;;;;;;;;;5033298;28;20037;-65
2023/09/17 06:41:29;;;;;;;20.27;18.17;;;;;;;;;;5033395;28;20100;-64
2023/09/17 06:43:56;;;;;;;18.40;16.42;;;;;;;;;;5033093;28;20037;-64
2023/09/17 06:46:23;;;;;;;19.20;16.83;;;;;;;;;;5033145;28;20033;-64
2023/09/17 06:48:50;;;;;;;19.60;17.63;;;;;;;;;;5033141;28;20101;-65
2023/09/17 06:51:16;;;;;;;18.02;16.23;;;;;;;;;;5033097;28;20494;-64
2023/09/17 06:53:42;;;;;;;17.55;15.77;;;;;;;;;;5032973;28;20025;-65
2023/09/17 06:56:08;;;;;;;16.88;15.15;;;;;;;;;;5032762;28;20026;-64
2023/09/17 06:58:35;;;;;;;17.85;15.18;;;;;;;;;;5032926;28;20025;-64
2023/09/17 07:01:01;;;;;;;17.77;15.93;;;;;;;;;;5001409;28;20534;-64
2023/09/17 07:03:27;;;;;;;17.10;15.32;;;;;;;;;;5033009;28;20032;-64
2023/09/17 07:05:53;;;;;;;16.25;14.57;;;;;;;;;;5032545;28;20041;-64
2023/09/17 07:08:19;;;;;;;15.40;13.75;;;;;;;;;;5033123;28;20013;-64
2023/09/17 07:10:45;;;;;;;17.30;15.50;;;;;;;;;;5015039;28;20028;-64
2023/09/17 07:13:12;;;;;;;15.63;13.88;;;;;;;;;;5032559;28;20025;-64
2023/09/17 07:15:38;;;;;;;16.33;14.63;;;;;;;;;;5032726;28;20033;-64
2023/09/17 07:18:07;;;;;;;16.10;14.20;;;;;;;;;;5030431;28;20038;-64
2023/09/17 07:20:33;;;;;;;16.00;14.20;;;;;;;;;;5028448;28;20033;-63
2023/09/17 07:22:59;;;;;;;16.83;13.70;;;;;;;;;;5030460;28;20392;-64
2023/09/17 07:25:25;;;;;;;15.15;13.70;;;;;;;;;;5007016;28;20034;-64
2023/09/17 07:27:51;;;;;;;22.30;15.35;;;;;;;;;;5031161;28;20044;-64
2023/09/17 07:30:19;;;;;;;16.02;14.38;;;;;;;;;;5021862;28;20049;-63
2023/09/17 07:32:45;;;;;;;14.88;13.35;;;;;;;;;;5032407;28;20049;-63
2023/09/17 07:35:11;;;;;;;15.48;13.77;;;;;;;;;;5032160;28;20036;-63
2023/09/17 07:37:37;;;;;;;16.05;14.45;;;;;;;;;;5032015;28;20477;-64
2023/09/17 07:40:04;;;;;;;14.27;12.95;;;;;;;;;;5032042;28;20044;-64
2023/09/17 07:42:30;;;;;;;15.50;13.90;;;;;;;;;;5032202;28;20022;-64
2023/09/17 07:44:56;;;;;;;14.98;13.38;;;;;;;;;;5032031;28;20092;-64
2023/09/17 07:47:23;;;;;;;15.43;13.80;;;;;;;;;;5014165;28;20021;-64
2023/09/17 07:49:49;;;;;;;15.48;13.88;;;;;;;;;;5032029;28;20025;-64
2023/09/17 07:52:15;;;;;;;15.52;13.90;;;;;;;;;;5031872;28;20159;-64
2023/09/17 07:54:41;;;;;;;15.55;14.05;;;;;;;;;;5031843;28;20108;-64
2023/09/17 07:57:08;;;;;;;15.73;13.13;;;;;;;;;;5031610;28;20038;-64
2023/09/17 07:59:34;;;;;;;16.85;13.73;;;;;;;;;;5031893;28;20025;-64
2023/09/17 08:02:02;;;;;;;16.45;14.07;;;;;;;;;;5014086;28;20026;-65
2023/09/17 08:04:28;;;;;;;15.75;14.15;;;;;;;;;;5031689;28;20379;-64
2023/09/17 08:06:54;;;;;;;17.85;13.90;;;;;;;;;;5030606;28;20037;-65
2023/09/17 08:09:20;;;;;;;15.98;14.38;;;;;;;;;;5031286;28;20100;-64
2023/09/17 08:11:46;;;;;;;16.17;14.48;;;;;;;;;;5023667;28;20121;-67
2023/09/17 08:14:13;;;;;;;16.05;14.45;;;;;;;;;;5029830;28;20044;-71
2023/09/17 08:16:39;;;;;;;16.92;14.77;;;;;;;;;;5029770;28;20041;-71
2023/09/17 08:19:07;;;;;;;15.68;14.07;;;;;;;;;;5031695;28;20045;-70
2023/09/17 08:21:34;;;;;;;15.15;13.55;;;;;;;;;;5032524;28;20104;-72
2023/09/17 08:24:00;;;;;;;16.38;14.05;;;;;;;;;;5029917;28;20069;-72
2023/09/17 08:26:29;;;;;;;14.82;13.40;;;;;;;;;;5031642;28;20017;-72
2023/09/17 08:29:00;;;;;;;15.70;13.70;;;;;;;;;;5035655;28;20059;-72
2023/09/17 08:31:26;;;;;;;16.17;14.48;;;;;;;;;;5027709;28;20033;-72
2023/09/17 08:33:53;;;;;;;16.95;13.70;;;;;;;;;;5022100;28;20458;-72
2023/09/17 08:36:22;;;;;;;16.88;15.18;;;;;;;;;;5027926;28;20026;-72
2023/09/17 08:38:49;;;;;;;14.57;13.18;;;;;;;;;;5043210;28;20083;-71
2023/09/17 08:41:16;;;;;;;15.70;14.07;;;;;;;;;;5031017;28;20121;-71
2023/09/17 08:43:43;;;;;;;18.50;16.67;;;;;;;;;;5034510;28;20179;-72
2023/09/17 08:46:09;;;;;;;17.25;14.32;;;;;;;;;;5027568;28;20108;-71
2023/09/17 08:48:35;;;;;;;16.20;14.48;;;;;;;;;;5030323;28;20523;-71
2023/09/17 08:51:01;;;;;;;16.83;15.15;;;;;;;;;;5033783;28;20032;-71
2023/09/17 08:53:31;;;;;;;19.40;17.35;;;;;;;;;;5035231;28;20029;-71
2023/09/17 08:55:59;;;;;;;16.65;14.95;;;;;;;;;;5035529;28;20024;-71
2023/09/17 08:58:32;;;;;;;18.77;16.80;;;;;;;;;;5033181;28;20040;-71
2023/09/17 09:00:59;;;;;;;25.05;17.05;;;;;;;;;;5025807;28;20048;-71
2023/09/17 09:03:26;;;;;;;17.35;15.43;;;;;;;;;;5033836;28;20033;-71
2023/09/17 09:05:55;;;;;;;17.85;16.15;;;;;;;;;;5034041;28;20021;-71
2023/09/17 09:08:21;;;;;;;16.45;14.80;;;;;;;;;;5032128;28;20013;-71
2023/09/17 09:10:47;;;;;;;16.20;14.60;;;;;;;;;;5021330;28;20410;-75
2023/09/17 09:13:14;;;;;;;18.38;15.23;;;;;;;;;;5035301;28;20033;-75
2023/09/17 09:15:40;;;;;;;18.40;16.55;;;;;;;;;;5033374;28;20125;-75
2023/09/17 09:18:08;;;;;;;17.77;16.05;;;;;;;;;;5034591;28;20059;-75
2023/09/17 09:20:35;;;;;;;20.52;18.42;;;;;;;;;;5028794;28;20034;-76
2023/09/17 09:23:01;;;;;;;20.33;18.33;;;;;;;;;;5026348;28;20033;-76
2023/09/17 09:25:28;;;;;;;19.73;17.63;;;;;;;;;;5034362;28;20048;-76
2023/09/17 09:27:56;;;;;;;17.55;15.85;;;;;;;;;;5032342;28;20048;-76
2023/09/17 09:30:22;;;;;;;17.80;16.08;;;;;;;;;;5035801;28;20065;-76
2023/09/17 09:32:48;;;;;;;17.60;15.85;;;;;;;;;;5032721;28;20028;-77
2023/09/17 09:35:14;;;;;;;20.42;18.30;;;;;;;;;;5017588;28;20033;-77
2023/09/17 09:37:41;;;;;;;18.63;16.65;;;;;;;;;;5034482;28;20120;-74
2023/09/17 09:40:09;;;;;;;18.00;16.02;;;;;;;;;;5027246;28;20021;-74
2023/09/17 09:42:36;;;;;;;17.40;15.55;;;;;;;;;;5028280;28;20100;-74
2023/09/17 09:45:03;;;;;;;16.98;15.18;;;;;;;;;;5032948;28;20037;-74
2023/09/17 09:47:30;;;;;;;20.65;18.52;;;;;;;;;;5032308;28;20036;-75
2023/09/17 09:49:56;;;;;;;17.05;15.35;;;;;;;;;;5036477;28;20021;-75
2023/09/17 09:52:24;;;;;;;18.13;16.23;;;;;;;;;;5033721;28;20033;-74
2023/09/17 09:54:50;;;;;;;18.80;16.85;;;;;;;;;;5025767;28;20022;-74
2023/09/17 09:57:17;;;;;;;22.02;19.83;;;;;;;;;;5032676;28;20029;-74
2023/09/17 09:59:44;;;;;;;20.73;16.77;;;;;;;;;;5027859;28;20018;-70
2023/09/17 10:02:12;;;;;;;17.80;16.10;;;;;;;;;;5023665;28;20047;-68
2023/09/17 10:04:38;;;;;;;18.15;16.33;;;;;;;;;;5027193;28;20049;-68
2023/09/17 10:07:04;;;;;;;18.23;16.33;;;;;;;;;;5032195;28;20041;-68
2023/09/17 10:09:31;;;;;;;18.30;16.38;;;;;;;;;;5021430;28;20021;-68
2023/09/17 10:12:00;;;;;;;18.92;16.65;;;;;;;;;;5033210;28;20246;-68
2023/09/17 10:14:27;;;;;;;17.60;15.80;;;;;;;;;;5028977;28;20040;-68
2023/09/17 10:16:56;;;;;;;18.60;16.63;;;;;;;;;;5033722;28;20033;-68
2023/09/17 10:19:24;;;;;;;17.00;15.13;;;;;;;;;;5031932;28;20061;-68
2023/09/17 10:21:51;;;;;;;18.35;16.55;;;;;;;;;;5032382;28;20368;-68
2023/09/17 10:24:18;;;;;;;16.00;14.38;;;;;;;;;;5026994;28;20037;-68
2023/09/17 10:26:45;;;;;;;17.17;15.35;;;;;;;;;;5025903;28;20482;-68
2023/09/17 10:29:11;;;;;;;17.65;16.00;;;;;;;;;;5033640;28;20435;-68
2023/09/17 10:31:38;;;;;;;18.15;15.75;;;;;;;;;;5033551;28;20029;-68
2023/09/17 10:34:05;;;;;;;17.48;15.65;;;;;;;;;;5033658;28;20025;-68
2023/09/17 10:36:31;;;;;;;17.95;16.02;;;;;;;;;;5033681;28;20116;-68
2023/09/17 10:38:59;;;;;;;17.92;16.00;;;;;;;;;;5033098;28;20080;-67
2023/09/17 10:41:29;;;;;;;16.42;14.82;;;;;;;;;;5023683;28;20018;-68
2023/09/17 10:43:58;;;;;;;16.67;14.80;;;;;;;;;;5029477;28;20033;-66
2023/09/17 10:46:24;;;;;;;17.38;15.60;;;;;;;;;;5033033;28;20048;-67
2023/09/17 10:48:50;;;;;;;17.88;16.08;;;;;;;;;;5032995;28;20467;-67
2023/09/17 10:51:20;;;;;;;17.02;14.68;;;;;;;;;;5013791;28;20021;-67
2023/09/17 10:53:46;;;;;;;14.80;13.40;;;;;;;;;;5027027;28;20055;-67
2023/09/17 10:56:15;;;;;;;17.20;15.50;;;;;;;;;;5043094;28;20025;-67
2023/09/17 10:58:43;;;;;;;14.68;13.10;;;;;;;;;;5014836;28;20510;-67
2023/09/17 11:01:12;;;;;;;15.00;13.38;;;;;;;;;;5032765;28;20026;-67
2023/09/17 11:03:39;;;;;;;14.23;12.70;;;;;;;;;;5030401;28;20022;-67
2023/09/17 11:06:13;;;;;;;16.83;15.13;;;;;;;;;;5032072;28;20026;-67
2023/09/17 11:08:42;;;;;;;14.02;12.63;;;;;;;;;;5033132;28;20069;-67
2023/09/17 11:11:08;;;;;;;15.20;13.60;;;;;;;;;;5022461;28;20104;-68
2023/09/17 11:13:34;;;;;;;15.40;13.63;;;;;;;;;;5024214;28;20068;-67
2023/09/17 11:16:01;;;;;;;13.18;11.88;;;;;;;;;;5027397;28;20017;-67
2023/09/17 11:18:27;;;;;;;12.25;11.05;;;;;;;;;;5032732;28;20053;-67
2023/09/17 11:21:00;;;;;;;10.60;9.68;;;;;;;;;;5014566;28;20025;-67
2023/09/17 11:23:42;;;;;;;15.38;12.30;;;;;;;;;;5003056;28;20022;-67
2023/09/17 11:26:08;;;;;;;12.52;11.32;;;;;;;;;;5032757;28;20048;-67
2023/09/17 11:28:38;;;;;;;13.20;11.80;;;;;;;;;;5032723;28;20368;-67
2023/09/17 11:31:09;;;;;;;14.40;13.05;;;;;;;;;;5032443;28;20037;-67
2023/09/17 11:33:39;;;;;;;15.07;12.43;;;;;;;;;;5030274;28;20029;-68
2023/09/17 11:36:07;;;;;;;13.77;12.43;;;;;;;;;;5035627;28;20037;-67
2023/09/17 11:38:33;;;;;;;15.00;13.48;;;;;;;;;;5030482;28;20056;-67
2023/09/17 11:41:03;;;;;;;15.25;13.82;;;;;;;;;;5030454;28;20033;-67
2023/09/17 11:43:29;;;;;;;16.25;14.68;;;;;;;;;;5031295;28;20021;-67
2023/09/17 11:45:55;;;;;;;13.73;12.40;;;;;;;;;;5024529;28;20391;-67
2023/09/17 11:48:21;;;;;;;13.68;12.25;;;;;;;;;;5022768;28;20023;-68
2023/09/17 11:50:47;;;;;;;12.68;11.40;;;;;;;;;;5014744;28;20137;-66
2023/09/17 11:53:15;;;;;;;14.07;12.57;;;;;;;;;;5029498;28;20436;-66
2023/09/17 11:55:41;;;;;;;11.50;10.40;;;;;;;;;;5027283;28;20030;-66
2023/09/17 11:58:35;;;;;;;14.07;12.68;;;;;;;;;;5017141;28;20447;-66
2023/09/17 12:01:07;;;;;;;13.93;12.73;;;;;;;;;;5017932;28;20061;-67
2023/09/17 12:03:33;;;;;;;14.55;12.98;;;;;;;;;;5027596;28;20021;-65
2023/09/17 12:05:59;;;;;;;11.07;9.98;;;;;;;;;;5027894;28;20075;-66
2023/09/17 12:08:25;;;;;;;13.43;12.15;;;;;;;;;;5031720;28;20022;-66
2023/09/17 12:10:53;;;;;;;12.63;11.57;;;;;;;;;;5029616;28;20112;-66
2023/09/17 12:13:20;;;;;;;13.73;12.32;;;;;;;;;;5026729;28;20084;-66
2023/09/17 12:15:48;;;;;;;13.52;12.23;;;;;;;;;;5029870;28;20044;-66
2023/09/17 12:18:14;;;;;;;12.38;11.25;;;;;;;;;;5029520;28;20092;-66
2023/09/17 12:21:07;;;;;;;12.75;11.27;;;;;;;;;;5031337;28;20029;-65
2023/09/17 12:23:47;;;;;;;9.95;9.15;;;;;;;;;;5032067;28;20413;-65
2023/09/17 12:26:22;;;;;;;10.98;10.00;;;;;;;;;;5029198;28;20468;-65
2023/09/17 12:28:48;;;;;;;11.00;9.90;;;;;;;;;;5031651;28;20022;-66
2023/09/17 12:31:14;;;;;;;11.68;10.48;;;;;;;;;;5031640;28;20045;-66
2023/09/17 12:33:43;;;;;;;9.85;8.98;;;;;;;;;;5031665;28;20471;-65
2023/09/17 12:36:09;;;;;;;10.50;9.50;;;;;;;;;;5031344;28;20024;-65
2023/09/17 12:38:35;;;;;;;10.63;9.55;;;;;;;;;;5031562;28;20518;-66
2023/09/17 12:41:01;;;;;;;12.38;10.27;;;;;;;;;;5031217;28;20021;-65
2023/09/17 12:43:27;;;;;;;10.55;9.75;;;;;;;;;;5031215;28;20029;-65
2023/09/17 12:45:53;;;;;;;9.40;8.48;;;;;;;;;;5031632;28;20049;-66
2023/09/17 12:48:20;;;;;;;10.45;9.40;;;;;;;;;;5031452;28;20025;-65
2023/09/17 12:50:46;;;;;;;10.20;9.32;;;;;;;;;;5031714;28;20024;-65
2023/09/17 12:53:12;;;;;;;11.80;10.57;;;;;;;;;;5031446;28;20052;-66
2023/09/17 12:55:39;;;;;;;11.60;9.40;;;;;;;;;;5031499;28;20055;-65
2023/09/17 12:58:08;;;;;;;11.95;9.30;;;;;;;;;;5031184;28;20072;-66
2023/09/17 13:00:34;;;;;;;10.35;9.13;;;;;;;;;;5031664;28;20402;-66
2023/09/17 13:03:14;;;;;;;9.77;8.95;;;;;;;;;;5031186;28;20028;-65
2023/09/17 13:05:41;;;;;;;11.77;10.68;;;;;;;;;;5031616;28;20021;-66
2023/09/17 13:08:08;;;;;;;10.70;9.70;;;;;;;;;;5030472;28;20025;-66
2023/09/17 13:10:34;;;;;;;10.40;9.40;;;;;;;;;;5030878;28;20391;-66
2023/09/17 13:13:05;;;;;;;9.10;8.40;;;;;;;;;;5029960;28;20108;-66
2023/09/17 13:15:31;;;;;;;9.10;8.05;;;;;;;;;;5030378;28;20022;-67
2023/09/17 13:17:58;;;;;;;10.85;9.73;;;;;;;;;;5030973;28;20073;-66
2023/09/17 13:20:25;;;;;;;10.00;9.07;;;;;;;;;;5031119;28;20025;-66
2023/09/17 13:22:51;;;;;;;10.10;9.10;;;;;;;;;;5033732;28;20030;-66
2023/09/17 13:25:18;;;;;;;9.57;8.68;;;;;;;;;;5034809;28;20430;-66
2023/09/17 13:27:44;;;;;;;12.80;10.25;;;;;;;;;;5035036;28;20163;-67
2023/09/17 13:30:10;;;;;;;11.68;8.93;;;;;;;;;;5017060;28;20018;-67
2023/09/17 13:32:36;;;;;;;13.05;9.30;;;;;;;;;;5016935;28;20037;-66
2023/09/17 13:35:08;;;;;;;8.93;8.07;;;;;;;;;;5034790;28;20036;-66
2023/09/17 13:37:37;;;;;;;10.30;9.40;;;;;;;;;;5034591;28;20044;-66
2023/09/17 13:40:05;;;;;;;9.00;8.10;;;;;;;;;;5034824;28;20017;-66
2023/09/17 13:42:31;;;;;;;9.15;8.35;;;;;;;;;;5034578;28;20486;-65
2023/09/17 13:44:57;;;;;;;9.82;8.60;;;;;;;;;;5034775;28;20030;-66
2023/09/17 13:47:23;;;;;;;8.82;7.97;;;;;;;;;;5035151;28;20026;-66
2023/09/17 13:49:49;;;;;;;8.50;7.70;;;;;;;;;;5034870;28;20037;-65
2023/09/17 13:52:15;;;;;;;8.57;7.88;;;;;;;;;;5034712;28;20025;-66
2023/09/17 13:54:42;;;;;;;7.97;7.18;;;;;;;;;;5016765;28;20114;-66
2023/09/17 13:57:08;;;;;;;8.15;7.30;;;;;;;;;;5034669;28;20421;-66
2023/09/17 13:59:34;;;;;;;12.02;8.35;;;;;;;;;;5034549;28;20368;-67
2023/09/17 14:02:01;;;;;;;8.18;7.38;;;;;;;;;;5034462;28;20025;-67
2023/09/17 14:04:27;;;;;;;7.80;6.63;;;;;;;;;;5034440;28;20391;-66
2023/09/17 14:06:55;;;;;;;8.07;7.38;;;;;;;;;;5034458;28;20026;-67
2023/09/17 14:09:21;;;;;;;7.55;6.85;;;;;;;;;;5034530;28;20022;-67
2023/09/17 14:11:47;;;;;;;8.35;7.55;;;;;;;;;;5020580;28;20030;-67
2023/09/17 14:14:13;;;;;;;7.60;6.90;;;;;;;;;;5016400;28;20029;-67
2023/09/17 14:16:39;;;;;;;8.10;7.22;;;;;;;;;;5034041;28;20399;-67